sensor_id;sensor_type;location;lat;lon;timestamp;P1;durP1;ratioP1;P2;durP2;ratioP2
24799;SDS011;12897;50.812;4.430;2023-06-26T00:00:18;10.70;;;6.45;;
24799;SDS011;12897;50.812;4.430;2023-06-26T00:02:46;9.55;;;5.62;;
24799;SDS011;12897;50.812;4.430;2023-06-26T00:05:14;8.23;;;5.97;;
24799;SDS011;12897;50.812;4.430;2023-06-26T00:10:29;8.48;;;5.28;;
24799;SDS011;12897;50.812;4.430;2023-06-26T00:12:59;10.15;;;5.72;;
24799;SDS011;12897;50.812;4.430;2023-06-26T00:15:28;9.48;;;4.87;;
24799;SDS011;12897;50.812;4.430;2023-06-26T00:17:58;10.82;;;4.67;;
24799;SDS011;12897;50.812;4.430;2023-06-26T00:20:26;9.75;;;4.83;;
24799;SDS011;12897;50.812;4.430;2023-06-26T00:22:53;9.95;;;4.10;;
24799;SDS011;12897;50.812;4.430;2023-06-26T00:25:24;7.08;;;4.50;;
24799;SDS011;12897;50.812;4.430;2023-06-26T00:27:51;10.00;;;4.35;;
24799;SDS011;12897;50.812;4.430;2023-06-26T00:30:19;8.95;;;4.70;;
24799;SDS011;12897;50.812;4.430;2023-06-26T00:35:33;9.30;;;4.15;;
24799;SDS011;12897;50.812;4.430;2023-06-26T00:38:01;6.55;;;4.40;;
24799;SDS011;12897;50.812;4.430;2023-06-26T00:40:29;8.55;;;4.53;;
24799;SDS011;12897;50.812;4.430;2023-06-26T00:43:03;11.55;;;4.85;;
24799;SDS011;12897;50.812;4.430;2023-06-26T00:45:31;12.18;;;4.53;;
24799;SDS011;12897;50.812;4.430;2023-06-26T00:48:01;7.00;;;4.03;;
24799;SDS011;12897;50.812;4.430;2023-06-26T00:50:29;11.28;;;4.87;;
24799;SDS011;12897;50.812;4.430;2023-06-26T00:52:58;7.28;;;4.40;;
24799;SDS011;12897;50.812;4.430;2023-06-26T00:55:27;9.63;;;4.62;;
24799;SDS011;12897;50.812;4.430;2023-06-26T00:57:55;11.35;;;4.25;;
24799;SDS011;12897;50.812;4.430;2023-06-26T01:00:23;6.72;;;4.12;;
24799;SDS011;12897;50.812;4.430;2023-06-26T01:02:51;10.13;;;4.85;;
24799;SDS011;12897;50.812;4.430;2023-06-26T01:05:21;9.70;;;4.42;;
24799;SDS011;12897;50.812;4.430;2023-06-26T01:07:48;10.80;;;4.80;;
24799;SDS011;12897;50.812;4.430;2023-06-26T01:10:16;8.80;;;4.55;;
24799;SDS011;12897;50.812;4.430;2023-06-26T01:15:13;9.73;;;4.28;;
24799;SDS011;12897;50.812;4.430;2023-06-26T01:17:42;8.38;;;3.80;;
24799;SDS011;12897;50.812;4.430;2023-06-26T01:20:11;7.05;;;3.75;;
24799;SDS011;12897;50.812;4.430;2023-06-26T01:28:03;13.00;;;4.17;;
24799;SDS011;12897;50.812;4.430;2023-06-26T01:30:32;13.38;;;4.70;;
24799;SDS011;12897;50.812;4.430;2023-06-26T01:33:00;7.90;;;4.15;;
24799;SDS011;12897;50.812;4.430;2023-06-26T01:35:29;6.67;;;4.22;;
24799;SDS011;12897;50.812;4.430;2023-06-26T01:38:16;9.40;;;4.10;;
24799;SDS011;12897;50.812;4.430;2023-06-26T01:40:46;8.25;;;3.87;;
24799;SDS011;12897;50.812;4.430;2023-06-26T01:45:54;14.38;;;4.40;;
24799;SDS011;12897;50.812;4.430;2023-06-26T01:48:26;7.95;;;3.75;;
24799;SDS011;12897;50.812;4.430;2023-06-26T01:50:56;10.72;;;4.20;;
24799;SDS011;12897;50.812;4.430;2023-06-26T01:53:31;11.05;;;4.22;;
24799;SDS011;12897;50.812;4.430;2023-06-26T01:56:12;9.93;;;4.10;;
24799;SDS011;12897;50.812;4.430;2023-06-26T01:58:36;9.83;;;3.60;;
24799;SDS011;12897;50.812;4.430;2023-06-26T02:01:13;10.10;;;4.08;;
24799;SDS011;12897;50.812;4.430;2023-06-26T02:03:36;10.95;;;4.00;;
24799;SDS011;12897;50.812;4.430;2023-06-26T02:06:04;8.30;;;4.12;;
24799;SDS011;12897;50.812;4.430;2023-06-26T02:08:31;9.20;;;4.25;;
24799;SDS011;12897;50.812;4.430;2023-06-26T02:10:59;8.15;;;3.75;;
24799;SDS011;12897;50.812;4.430;2023-06-26T02:13:27;9.08;;;4.30;;
24799;SDS011;12897;50.812;4.430;2023-06-26T02:15:54;8.50;;;3.65;;
24799;SDS011;12897;50.812;4.430;2023-06-26T02:18:23;10.05;;;4.78;;
24799;SDS011;12897;50.812;4.430;2023-06-26T02:20:50;15.23;;;4.70;;
24799;SDS011;12897;50.812;4.430;2023-06-26T02:23:18;12.43;;;3.98;;
24799;SDS011;12897;50.812;4.430;2023-06-26T02:25:47;12.80;;;4.00;;
24799;SDS011;12897;50.812;4.430;2023-06-26T02:28:16;15.70;;;4.42;;
24799;SDS011;12897;50.812;4.430;2023-06-26T02:30:44;10.78;;;4.53;;
24799;SDS011;12897;50.812;4.430;2023-06-26T02:33:12;10.13;;;4.25;;
24799;SDS011;12897;50.812;4.430;2023-06-26T02:35:39;14.90;;;4.87;;
24799;SDS011;12897;50.812;4.430;2023-06-26T02:38:09;13.93;;;5.08;;
24799;SDS011;12897;50.812;4.430;2023-06-26T02:40:39;10.38;;;4.20;;
24799;SDS011;12897;50.812;4.430;2023-06-26T02:43:07;12.37;;;4.37;;
24799;SDS011;12897;50.812;4.430;2023-06-26T02:45:35;15.75;;;4.97;;
24799;SDS011;12897;50.812;4.430;2023-06-26T02:48:04;13.60;;;5.25;;
24799;SDS011;12897;50.812;4.430;2023-06-26T02:50:33;12.80;;;4.45;;
24799;SDS011;12897;50.812;4.430;2023-06-26T02:53:02;10.45;;;4.55;;
24799;SDS011;12897;50.812;4.430;2023-06-26T02:55:29;12.95;;;4.45;;
24799;SDS011;12897;50.812;4.430;2023-06-26T02:57:57;13.45;;;4.70;;
24799;SDS011;12897;50.812;4.430;2023-06-26T03:00:24;11.05;;;4.45;;
24799;SDS011;12897;50.812;4.430;2023-06-26T03:02:52;13.30;;;5.08;;
24799;SDS011;12897;50.812;4.430;2023-06-26T03:05:22;14.00;;;4.65;;
24799;SDS011;12897;50.812;4.430;2023-06-26T03:10:39;13.55;;;4.80;;
24799;SDS011;12897;50.812;4.430;2023-06-26T03:13:13;14.10;;;5.70;;
24799;SDS011;12897;50.812;4.430;2023-06-26T03:15:37;15.93;;;4.60;;
24799;SDS011;12897;50.812;4.430;2023-06-26T03:18:06;13.15;;;5.12;;
24799;SDS011;12897;50.812;4.430;2023-06-26T03:20:35;16.35;;;4.80;;
24799;SDS011;12897;50.812;4.430;2023-06-26T03:23:08;15.90;;;4.92;;
24799;SDS011;12897;50.812;4.430;2023-06-26T03:25:43;17.67;;;5.15;;
24799;SDS011;12897;50.812;4.430;2023-06-26T03:28:12;15.28;;;5.25;;
24799;SDS011;12897;50.812;4.430;2023-06-26T03:30:39;20.27;;;5.42;;
24799;SDS011;12897;50.812;4.430;2023-06-26T03:33:07;19.30;;;5.17;;
24799;SDS011;12897;50.812;4.430;2023-06-26T03:35:34;16.57;;;4.67;;
24799;SDS011;12897;50.812;4.430;2023-06-26T03:38:03;19.30;;;5.03;;
24799;SDS011;12897;50.812;4.430;2023-06-26T03:40:31;17.77;;;5.43;;
24799;SDS011;12897;50.812;4.430;2023-06-26T03:43:00;18.75;;;5.35;;
24799;SDS011;12897;50.812;4.430;2023-06-26T03:45:29;26.87;;;5.45;;
24799;SDS011;12897;50.812;4.430;2023-06-26T03:47:56;18.40;;;5.15;;
24799;SDS011;12897;50.812;4.430;2023-06-26T03:50:25;16.32;;;5.30;;
24799;SDS011;12897;50.812;4.430;2023-06-26T03:52:53;18.62;;;4.90;;
24799;SDS011;12897;50.812;4.430;2023-06-26T03:58:09;17.35;;;5.53;;
24799;SDS011;12897;50.812;4.430;2023-06-26T04:00:37;17.17;;;5.30;;
24799;SDS011;12897;50.812;4.430;2023-06-26T04:03:06;17.00;;;5.45;;
24799;SDS011;12897;50.812;4.430;2023-06-26T04:05:35;14.18;;;4.75;;
24799;SDS011;12897;50.812;4.430;2023-06-26T04:08:03;18.52;;;5.33;;
24799;SDS011;12897;50.812;4.430;2023-06-26T04:10:31;17.35;;;6.12;;
24799;SDS011;12897;50.812;4.430;2023-06-26T04:12:58;17.82;;;5.12;;
24799;SDS011;12897;50.812;4.430;2023-06-26T04:15:27;14.57;;;5.33;;
24799;SDS011;12897;50.812;4.430;2023-06-26T04:17:55;19.55;;;6.12;;
24799;SDS011;12897;50.812;4.430;2023-06-26T04:20:22;18.05;;;5.50;;
24799;SDS011;12897;50.812;4.430;2023-06-26T04:22:51;14.95;;;5.33;;
24799;SDS011;12897;50.812;4.430;2023-06-26T04:25:19;13.55;;;5.17;;
24799;SDS011;12897;50.812;4.430;2023-06-26T04:27:52;24.65;;;5.40;;
24799;SDS011;12897;50.812;4.430;2023-06-26T04:30:16;25.65;;;5.72;;
24799;SDS011;12897;50.812;4.430;2023-06-26T04:33:02;18.35;;;5.62;;
24799;SDS011;12897;50.812;4.430;2023-06-26T04:35:15;19.48;;;5.40;;
24799;SDS011;12897;50.812;4.430;2023-06-26T04:37:43;17.10;;;5.47;;
24799;SDS011;12897;50.812;4.430;2023-06-26T04:40:12;15.05;;;4.80;;
24799;SDS011;12897;50.812;4.430;2023-06-26T04:42:39;23.12;;;5.42;;
24799;SDS011;12897;50.812;4.430;2023-06-26T04:45:07;17.25;;;4.35;;
24799;SDS011;12897;50.812;4.430;2023-06-26T04:47:35;23.27;;;4.95;;
24799;SDS011;12897;50.812;4.430;2023-06-26T04:50:02;20.50;;;5.60;;
24799;SDS011;12897;50.812;4.430;2023-06-26T04:52:30;19.52;;;4.90;;
24799;SDS011;12897;50.812;4.430;2023-06-26T04:54:58;22.32;;;5.35;;
24799;SDS011;12897;50.812;4.430;2023-06-26T04:57:25;16.97;;;5.00;;
24799;SDS011;12897;50.812;4.430;2023-06-26T04:59:53;30.72;;;5.33;;
24799;SDS011;12897;50.812;4.430;2023-06-26T05:02:22;18.32;;;5.67;;
24799;SDS011;12897;50.812;4.430;2023-06-26T05:04:49;25.00;;;5.10;;
24799;SDS011;12897;50.812;4.430;2023-06-26T05:07:17;17.62;;;4.53;;
24799;SDS011;12897;50.812;4.430;2023-06-26T05:09:45;20.68;;;5.10;;
24799;SDS011;12897;50.812;4.430;2023-06-26T05:12:14;24.05;;;5.53;;
24799;SDS011;12897;50.812;4.430;2023-06-26T05:14:42;23.22;;;5.50;;
24799;SDS011;12897;50.812;4.430;2023-06-26T05:17:13;14.87;;;4.87;;
24799;SDS011;12897;50.812;4.430;2023-06-26T05:19:40;26.05;;;5.45;;
24799;SDS011;12897;50.812;4.430;2023-06-26T05:22:09;16.60;;;4.15;;
24799;SDS011;12897;50.812;4.430;2023-06-26T05:24:39;22.87;;;5.12;;
24799;SDS011;12897;50.812;4.430;2023-06-26T05:27:08;19.40;;;4.50;;
24799;SDS011;12897;50.812;4.430;2023-06-26T05:29:37;21.68;;;4.62;;
24799;SDS011;12897;50.812;4.430;2023-06-26T05:32:10;17.23;;;4.65;;
24799;SDS011;12897;50.812;4.430;2023-06-26T05:34:35;18.90;;;4.17;;
24799;SDS011;12897;50.812;4.430;2023-06-26T05:37:09;20.05;;;5.60;;
24799;SDS011;12897;50.812;4.430;2023-06-26T05:39:39;27.40;;;5.20;;
24799;SDS011;12897;50.812;4.430;2023-06-26T05:42:07;16.40;;;4.03;;
24799;SDS011;12897;50.812;4.430;2023-06-26T05:44:38;12.58;;;3.87;;
24799;SDS011;12897;50.812;4.430;2023-06-26T05:47:10;18.15;;;4.55;;
24799;SDS011;12897;50.812;4.430;2023-06-26T05:49:39;24.05;;;4.22;;
24799;SDS011;12897;50.812;4.430;2023-06-26T05:52:07;19.57;;;4.60;;
24799;SDS011;12897;50.812;4.430;2023-06-26T05:54:37;20.45;;;4.30;;
24799;SDS011;12897;50.812;4.430;2023-06-26T05:57:05;16.02;;;3.62;;
24799;SDS011;12897;50.812;4.430;2023-06-26T06:02:06;14.25;;;3.42;;
24799;SDS011;12897;50.812;4.430;2023-06-26T06:04:35;15.15;;;3.92;;
24799;SDS011;12897;50.812;4.430;2023-06-26T06:07:09;17.87;;;3.45;;
24799;SDS011;12897;50.812;4.430;2023-06-26T06:09:36;18.50;;;4.12;;
24799;SDS011;12897;50.812;4.430;2023-06-26T06:12:07;18.17;;;4.75;;
24799;SDS011;12897;50.812;4.430;2023-06-26T06:17:04;15.68;;;3.30;;
24799;SDS011;12897;50.812;4.430;2023-06-26T06:19:34;18.27;;;4.22;;
24799;SDS011;12897;50.812;4.430;2023-06-26T06:22:08;18.50;;;3.25;;
24799;SDS011;12897;50.812;4.430;2023-06-26T06:24:42;14.43;;;2.70;;
24799;SDS011;12897;50.812;4.430;2023-06-26T06:27:07;19.60;;;3.10;;
24799;SDS011;12897;50.812;4.430;2023-06-26T06:29:36;20.30;;;3.40;;
24799;SDS011;12897;50.812;4.430;2023-06-26T06:32:04;19.48;;;2.70;;
24799;SDS011;12897;50.812;4.430;2023-06-26T06:34:36;16.00;;;3.83;;
24799;SDS011;12897;50.812;4.430;2023-06-26T06:37:04;18.25;;;3.87;;
24799;SDS011;12897;50.812;4.430;2023-06-26T06:39:31;17.82;;;3.60;;
24799;SDS011;12897;50.812;4.430;2023-06-26T06:41:59;13.40;;;2.83;;
24799;SDS011;12897;50.812;4.430;2023-06-26T06:44:28;10.82;;;2.83;;
24799;SDS011;12897;50.812;4.430;2023-06-26T06:46:56;17.87;;;3.77;;
24799;SDS011;12897;50.812;4.430;2023-06-26T06:49:25;10.32;;;3.65;;
24799;SDS011;12897;50.812;4.430;2023-06-26T06:51:56;9.58;;;2.35;;
24799;SDS011;12897;50.812;4.430;2023-06-26T06:54:25;14.63;;;2.45;;
24799;SDS011;12897;50.812;4.430;2023-06-26T06:56:54;11.48;;;2.70;;
24799;SDS011;12897;50.812;4.430;2023-06-26T06:59:26;14.75;;;2.70;;
24799;SDS011;12897;50.812;4.430;2023-06-26T07:02:00;14.38;;;2.70;;
24799;SDS011;12897;50.812;4.430;2023-06-26T07:04:29;17.77;;;2.72;;
24799;SDS011;12897;50.812;4.430;2023-06-26T07:06:56;12.98;;;2.22;;
24799;SDS011;12897;50.812;4.430;2023-06-26T07:09:24;9.40;;;2.15;;
24799;SDS011;12897;50.812;4.430;2023-06-26T07:11:53;13.32;;;3.02;;
24799;SDS011;12897;50.812;4.430;2023-06-26T07:14:21;13.53;;;3.20;;
24799;SDS011;12897;50.812;4.430;2023-06-26T07:19:22;16.62;;;3.37;;
24799;SDS011;12897;50.812;4.430;2023-06-26T07:21:51;16.45;;;2.92;;
24799;SDS011;12897;50.812;4.430;2023-06-26T07:24:25;9.60;;;2.37;;
24799;SDS011;12897;50.812;4.430;2023-06-26T07:26:56;13.35;;;2.17;;
24799;SDS011;12897;50.812;4.430;2023-06-26T07:29:31;13.08;;;2.37;;
24799;SDS011;12897;50.812;4.430;2023-06-26T07:31:59;11.33;;;2.77;;
24799;SDS011;12897;50.812;4.430;2023-06-26T07:34:29;9.13;;;2.58;;
24799;SDS011;12897;50.812;4.430;2023-06-26T07:36:57;9.08;;;2.20;;
24799;SDS011;12897;50.812;4.430;2023-06-26T07:39:24;11.63;;;2.30;;
24799;SDS011;12897;50.812;4.430;2023-06-26T07:41:52;12.95;;;2.60;;
24799;SDS011;12897;50.812;4.430;2023-06-26T07:44:21;9.43;;;2.25;;
24799;SDS011;12897;50.812;4.430;2023-06-26T07:46:52;11.05;;;2.33;;
24799;SDS011;12897;50.812;4.430;2023-06-26T07:49:21;12.25;;;2.75;;
24799;SDS011;12897;50.812;4.430;2023-06-26T07:51:51;5.95;;;2.22;;
24799;SDS011;12897;50.812;4.430;2023-06-26T07:54:25;8.15;;;2.33;;
24799;SDS011;12897;50.812;4.430;2023-06-26T07:59:29;7.87;;;1.98;;
24799;SDS011;12897;50.812;4.430;2023-06-26T08:02:03;12.30;;;2.42;;
24799;SDS011;12897;50.812;4.430;2023-06-26T08:04:34;13.00;;;2.58;;
24799;SDS011;12897;50.812;4.430;2023-06-26T08:07:07;13.93;;;2.58;;
24799;SDS011;12897;50.812;4.430;2023-06-26T08:09:35;15.93;;;2.40;;
24799;SDS011;12897;50.812;4.430;2023-06-26T08:12:03;12.80;;;2.50;;
24799;SDS011;12897;50.812;4.430;2023-06-26T08:17:03;12.53;;;2.72;;
24799;SDS011;12897;50.812;4.430;2023-06-26T08:22:10;10.48;;;2.12;;
24799;SDS011;12897;50.812;4.430;2023-06-26T08:24:40;11.28;;;2.33;;
24799;SDS011;12897;50.812;4.430;2023-06-26T08:27:09;7.33;;;2.05;;
24799;SDS011;12897;50.812;4.430;2023-06-26T08:29:42;6.35;;;2.00;;
24799;SDS011;12897;50.812;4.430;2023-06-26T08:32:11;12.60;;;2.22;;
24799;SDS011;12897;50.812;4.430;2023-06-26T08:34:42;8.78;;;1.67;;
24799;SDS011;12897;50.812;4.430;2023-06-26T08:37:14;11.70;;;2.33;;
24799;SDS011;12897;50.812;4.430;2023-06-26T08:39:43;7.37;;;2.27;;
24799;SDS011;12897;50.812;4.430;2023-06-26T08:42:16;6.90;;;2.40;;
24799;SDS011;12897;50.812;4.430;2023-06-26T08:44:49;8.80;;;2.02;;
24799;SDS011;12897;50.812;4.430;2023-06-26T08:47:17;10.60;;;1.80;;
24799;SDS011;12897;50.812;4.430;2023-06-26T08:52:27;6.58;;;2.00;;
24799;SDS011;12897;50.812;4.430;2023-06-26T08:55:06;8.90;;;2.12;;
24799;SDS011;12897;50.812;4.430;2023-06-26T08:57:37;5.87;;;2.02;;
24799;SDS011;12897;50.812;4.430;2023-06-26T09:00:06;7.47;;;1.87;;
24799;SDS011;12897;50.812;4.430;2023-06-26T09:02:37;5.45;;;1.92;;
24799;SDS011;12897;50.812;4.430;2023-06-26T09:05:12;8.60;;;2.25;;
24799;SDS011;12897;50.812;4.430;2023-06-26T09:07:42;9.95;;;2.33;;
24799;SDS011;12897;50.812;4.430;2023-06-26T09:10:10;9.05;;;2.12;;
24799;SDS011;12897;50.812;4.430;2023-06-26T09:12:40;10.05;;;2.27;;
24799;SDS011;12897;50.812;4.430;2023-06-26T09:15:14;8.80;;;2.05;;
24799;SDS011;12897;50.812;4.430;2023-06-26T09:17:47;9.08;;;2.20;;
24799;SDS011;12897;50.812;4.430;2023-06-26T09:20:19;5.90;;;2.02;;
24799;SDS011;12897;50.812;4.430;2023-06-26T09:22:47;5.58;;;1.80;;
24799;SDS011;12897;50.812;4.430;2023-06-26T09:25:18;6.12;;;1.77;;
24799;SDS011;12897;50.812;4.430;2023-06-26T09:27:49;5.17;;;1.85;;
24799;SDS011;12897;50.812;4.430;2023-06-26T09:30:17;7.15;;;2.12;;
24799;SDS011;12897;50.812;4.430;2023-06-26T09:32:46;10.18;;;2.22;;
24799;SDS011;12897;50.812;4.430;2023-06-26T09:35:16;6.78;;;2.35;;
24799;SDS011;12897;50.812;4.430;2023-06-26T09:37:45;7.00;;;2.27;;
24799;SDS011;12897;50.812;4.430;2023-06-26T09:40:16;9.60;;;2.15;;
24799;SDS011;12897;50.812;4.430;2023-06-26T09:42:44;7.03;;;2.02;;
24799;SDS011;12897;50.812;4.430;2023-06-26T09:45:17;6.12;;;1.82;;
24799;SDS011;12897;50.812;4.430;2023-06-26T09:47:46;5.42;;;2.05;;
24799;SDS011;12897;50.812;4.430;2023-06-26T09:50:22;8.28;;;1.90;;
24799;SDS011;12897;50.812;4.430;2023-06-26T09:55:39;11.63;;;2.35;;
24799;SDS011;12897;50.812;4.430;2023-06-26T09:58:10;7.03;;;2.40;;
24799;SDS011;12897;50.812;4.430;2023-06-26T10:00:39;9.63;;;2.12;;
24799;SDS011;12897;50.812;4.430;2023-06-26T10:03:10;8.40;;;1.90;;
24799;SDS011;12897;50.812;4.430;2023-06-26T10:05:38;7.97;;;1.90;;
24799;SDS011;12897;50.812;4.430;2023-06-26T10:08:18;7.42;;;1.60;;
24799;SDS011;12897;50.812;4.430;2023-06-26T10:10:40;6.37;;;1.80;;
24799;SDS011;12897;50.812;4.430;2023-06-26T10:13:17;10.45;;;2.62;;
24799;SDS011;12897;50.812;4.430;2023-06-26T10:15:40;6.92;;;2.00;;
24799;SDS011;12897;50.812;4.430;2023-06-26T10:18:13;11.88;;;2.40;;
24799;SDS011;12897;50.812;4.430;2023-06-26T10:20:45;8.20;;;1.90;;
24799;SDS011;12897;50.812;4.430;2023-06-26T10:23:15;6.03;;;2.05;;
24799;SDS011;12897;50.812;4.430;2023-06-26T10:25:46;8.18;;;2.08;;
24799;SDS011;12897;50.812;4.430;2023-06-26T10:28:16;4.17;;;1.67;;
24799;SDS011;12897;50.812;4.430;2023-06-26T10:30:45;5.05;;;2.10;;
24799;SDS011;12897;50.812;4.430;2023-06-26T10:33:17;6.55;;;2.02;;
24799;SDS011;12897;50.812;4.430;2023-06-26T10:35:46;12.65;;;2.12;;
24799;SDS011;12897;50.812;4.430;2023-06-26T10:38:19;5.83;;;2.20;;
24799;SDS011;12897;50.812;4.430;2023-06-26T10:40:47;6.22;;;2.20;;
24799;SDS011;12897;50.812;4.430;2023-06-26T10:43:18;7.25;;;1.70;;
24799;SDS011;12897;50.812;4.430;2023-06-26T10:45:47;7.45;;;1.77;;
24799;SDS011;12897;50.812;4.430;2023-06-26T10:48:17;7.12;;;1.85;;
24799;SDS011;12897;50.812;4.430;2023-06-26T10:50:49;8.90;;;2.30;;
24799;SDS011;12897;50.812;4.430;2023-06-26T10:56:00;6.70;;;2.52;;
24799;SDS011;12897;50.812;4.430;2023-06-26T10:58:29;8.65;;;2.27;;
24799;SDS011;12897;50.812;4.430;2023-06-26T11:01:17;6.05;;;2.15;;
24799;SDS011;12897;50.812;4.430;2023-06-26T11:03:47;10.63;;;2.02;;
24799;SDS011;12897;50.812;4.430;2023-06-26T11:06:30;6.80;;;2.20;;
24799;SDS011;12897;50.812;4.430;2023-06-26T11:14:27;7.15;;;2.30;;
24799;SDS011;12897;50.812;4.430;2023-06-26T11:17:03;10.98;;;1.98;;
24799;SDS011;12897;50.812;4.430;2023-06-26T11:19:33;11.70;;;2.35;;
24799;SDS011;12897;50.812;4.430;2023-06-26T11:22:11;5.42;;;2.27;;
24799;SDS011;12897;50.812;4.430;2023-06-26T11:24:45;7.00;;;2.10;;
24799;SDS011;12897;50.812;4.430;2023-06-26T11:27:13;6.72;;;1.72;;
24799;SDS011;12897;50.812;4.430;2023-06-26T11:29:51;7.35;;;2.00;;
24799;SDS011;12897;50.812;4.430;2023-06-26T11:32:19;7.03;;;1.85;;
24799;SDS011;12897;50.812;4.430;2023-06-26T11:34:47;9.68;;;2.30;;
24799;SDS011;12897;50.812;4.430;2023-06-26T11:37:19;5.17;;;1.80;;
24799;SDS011;12897;50.812;4.430;2023-06-26T11:39:48;5.78;;;1.98;;
24799;SDS011;12897;50.812;4.430;2023-06-26T11:42:19;9.73;;;2.50;;
24799;SDS011;12897;50.812;4.430;2023-06-26T11:44:50;4.97;;;2.12;;
24799;SDS011;12897;50.812;4.430;2023-06-26T11:49:55;10.63;;;2.05;;
24799;SDS011;12897;50.812;4.430;2023-06-26T11:52:23;6.75;;;2.40;;
24799;SDS011;12897;50.812;4.430;2023-06-26T11:54:53;6.10;;;1.90;;
24799;SDS011;12897;50.812;4.430;2023-06-26T11:57:31;5.92;;;1.82;;
24799;SDS011;12897;50.812;4.430;2023-06-26T11:59:53;6.15;;;2.10;;
24799;SDS011;12897;50.812;4.430;2023-06-26T12:02:23;10.82;;;2.42;;
24799;SDS011;12897;50.812;4.430;2023-06-26T12:04:55;8.05;;;1.85;;
24799;SDS011;12897;50.812;4.430;2023-06-26T12:07:24;8.30;;;2.15;;
24799;SDS011;12897;50.812;4.430;2023-06-26T12:09:54;8.55;;;1.95;;
24799;SDS011;12897;50.812;4.430;2023-06-26T12:12:24;9.28;;;2.10;;
24799;SDS011;12897;50.812;4.430;2023-06-26T12:14:56;4.25;;;1.95;;
24799;SDS011;12897;50.812;4.430;2023-06-26T12:17:37;6.58;;;1.95;;
24799;SDS011;12897;50.812;4.430;2023-06-26T12:20:16;6.62;;;2.12;;
24799;SDS011;12897;50.812;4.430;2023-06-26T12:22:55;14.80;;;2.92;;
24799;SDS011;12897;50.812;4.430;2023-06-26T12:25:33;7.90;;;1.92;;
24799;SDS011;12897;50.812;4.430;2023-06-26T12:27:51;6.30;;;1.82;;
24799;SDS011;12897;50.812;4.430;2023-06-26T12:30:21;4.35;;;1.80;;
24799;SDS011;12897;50.812;4.430;2023-06-26T12:32:52;7.15;;;1.87;;
24799;SDS011;12897;50.812;4.430;2023-06-26T12:35:30;7.50;;;2.15;;
24799;SDS011;12897;50.812;4.430;2023-06-26T12:37:52;3.58;;;1.87;;
24799;SDS011;12897;50.812;4.430;2023-06-26T12:40:26;9.75;;;2.42;;
24799;SDS011;12897;50.812;4.430;2023-06-26T12:42:51;4.17;;;1.55;;
24799;SDS011;12897;50.812;4.430;2023-06-26T12:45:22;7.72;;;2.35;;
24799;SDS011;12897;50.812;4.430;2023-06-26T12:47:51;5.60;;;2.00;;
24799;SDS011;12897;50.812;4.430;2023-06-26T12:50:20;6.00;;;2.12;;
24799;SDS011;12897;50.812;4.430;2023-06-26T12:52:56;7.35;;;1.65;;
24799;SDS011;12897;50.812;4.430;2023-06-26T12:55:28;7.08;;;2.08;;
24799;SDS011;12897;50.812;4.430;2023-06-26T12:57:55;10.35;;;2.77;;
24799;SDS011;12897;50.812;4.430;2023-06-26T13:00:25;3.92;;;1.80;;
24799;SDS011;12897;50.812;4.430;2023-06-26T13:03:01;5.92;;;1.42;;
24799;SDS011;12897;50.812;4.430;2023-06-26T13:05:27;8.63;;;2.00;;
24799;SDS011;12897;50.812;4.430;2023-06-26T13:07:55;3.35;;;1.82;;
24799;SDS011;12897;50.812;4.430;2023-06-26T13:10:25;4.12;;;1.77;;
24799;SDS011;12897;50.812;4.430;2023-06-26T13:12:54;7.35;;;2.33;;
24799;SDS011;12897;50.812;4.430;2023-06-26T13:15:22;9.75;;;2.12;;
24799;SDS011;12897;50.812;4.430;2023-06-26T13:17:50;7.30;;;2.10;;
24799;SDS011;12897;50.812;4.430;2023-06-26T13:20:19;5.55;;;1.70;;
24799;SDS011;12897;50.812;4.430;2023-06-26T13:22:48;13.90;;;2.47;;
24799;SDS011;12897;50.812;4.430;2023-06-26T13:25:19;8.90;;;2.12;;
24799;SDS011;12897;50.812;4.430;2023-06-26T13:27:55;6.97;;;1.82;;
24799;SDS011;12897;50.812;4.430;2023-06-26T13:30:35;6.85;;;1.95;;
24799;SDS011;12897;50.812;4.430;2023-06-26T13:33:05;8.83;;;2.72;;
24799;SDS011;12897;50.812;4.430;2023-06-26T13:35:39;8.60;;;1.98;;
24799;SDS011;12897;50.812;4.430;2023-06-26T13:38:12;13.25;;;2.12;;
24799;SDS011;12897;50.812;4.430;2023-06-26T13:40:44;5.10;;;2.15;;
24799;SDS011;12897;50.812;4.430;2023-06-26T13:43:16;9.00;;;2.40;;
24799;SDS011;12897;50.812;4.430;2023-06-26T13:45:57;7.65;;;1.80;;
24799;SDS011;12897;50.812;4.430;2023-06-26T13:48:36;4.03;;;1.85;;
24799;SDS011;12897;50.812;4.430;2023-06-26T13:51:05;5.70;;;2.17;;
24799;SDS011;12897;50.812;4.430;2023-06-26T13:56:19;6.55;;;1.75;;
24799;SDS011;12897;50.812;4.430;2023-06-26T13:58:55;9.03;;;1.90;;
24799;SDS011;12897;50.812;4.430;2023-06-26T14:01:20;8.85;;;2.12;;
24799;SDS011;12897;50.812;4.430;2023-06-26T14:03:49;9.28;;;2.87;;
24799;SDS011;12897;50.812;4.430;2023-06-26T14:06:19;5.65;;;2.02;;
24799;SDS011;12897;50.812;4.430;2023-06-26T14:09:04;6.25;;;2.20;;
24799;SDS011;12897;50.812;4.430;2023-06-26T14:14:01;10.45;;;1.95;;
24799;SDS011;12897;50.812;4.430;2023-06-26T14:16:43;6.83;;;1.80;;
24799;SDS011;12897;50.812;4.430;2023-06-26T14:19:05;4.95;;;2.10;;
24799;SDS011;12897;50.812;4.430;2023-06-26T14:21:41;9.73;;;2.07;;
24799;SDS011;12897;50.812;4.430;2023-06-26T14:24:10;7.92;;;2.10;;
24799;SDS011;12897;50.812;4.430;2023-06-26T14:26:39;9.10;;;2.10;;
24799;SDS011;12897;50.812;4.430;2023-06-26T14:29:13;8.70;;;1.95;;
24799;SDS011;12897;50.812;4.430;2023-06-26T14:31:43;7.70;;;2.00;;
24799;SDS011;12897;50.812;4.430;2023-06-26T14:34:16;8.55;;;2.05;;
24799;SDS011;12897;50.812;4.430;2023-06-26T14:36:47;10.72;;;2.08;;
24799;SDS011;12897;50.812;4.430;2023-06-26T14:39:22;7.45;;;1.77;;
24799;SDS011;12897;50.812;4.430;2023-06-26T14:41:47;5.15;;;2.08;;
24799;SDS011;12897;50.812;4.430;2023-06-26T14:44:16;4.05;;;1.57;;
24799;SDS011;12897;50.812;4.430;2023-06-26T14:46:56;5.08;;;2.00;;
24799;SDS011;12897;50.812;4.430;2023-06-26T14:49:19;10.53;;;1.82;;
24799;SDS011;12897;50.812;4.430;2023-06-26T14:51:53;5.25;;;1.55;;
24799;SDS011;12897;50.812;4.430;2023-06-26T14:54:19;4.65;;;1.52;;
24799;SDS011;12897;50.812;4.430;2023-06-26T14:56:53;8.05;;;1.55;;
24799;SDS011;12897;50.812;4.430;2023-06-26T14:59:23;6.70;;;1.72;;
24799;SDS011;12897;50.812;4.430;2023-06-26T15:01:53;5.35;;;1.80;;
24799;SDS011;12897;50.812;4.430;2023-06-26T15:04:25;11.50;;;2.42;;
24799;SDS011;12897;50.812;4.430;2023-06-26T15:07:00;6.92;;;1.98;;
24799;SDS011;12897;50.812;4.430;2023-06-26T15:09:28;8.75;;;1.87;;
24799;SDS011;12897;50.812;4.430;2023-06-26T15:12:01;10.15;;;2.33;;
24799;SDS011;12897;50.812;4.430;2023-06-26T15:14:32;5.60;;;2.10;;
24799;SDS011;12897;50.812;4.430;2023-06-26T15:17:09;5.62;;;2.20;;
24799;SDS011;12897;50.812;4.430;2023-06-26T15:19:36;6.53;;;2.00;;
24799;SDS011;12897;50.812;4.430;2023-06-26T15:22:13;10.43;;;2.30;;
24799;SDS011;12897;50.812;4.430;2023-06-26T15:24:44;9.75;;;2.10;;
24799;SDS011;12897;50.812;4.430;2023-06-26T15:29:57;7.17;;;2.50;;
24799;SDS011;12897;50.812;4.430;2023-06-26T15:32:34;7.00;;;2.20;;
24799;SDS011;12897;50.812;4.430;2023-06-26T15:35:04;7.90;;;1.85;;
24799;SDS011;12897;50.812;4.430;2023-06-26T15:37:32;9.10;;;2.10;;
24799;SDS011;12897;50.812;4.430;2023-06-26T15:40:05;6.12;;;2.02;;
24799;SDS011;12897;50.812;4.430;2023-06-26T15:42:44;4.45;;;1.67;;
24799;SDS011;12897;50.812;4.430;2023-06-26T15:45:13;6.60;;;2.72;;
24799;SDS011;12897;50.812;4.430;2023-06-26T15:47:43;8.35;;;2.10;;
24799;SDS011;12897;50.812;4.430;2023-06-26T15:50:25;5.42;;;1.90;;
24799;SDS011;12897;50.812;4.430;2023-06-26T15:52:49;8.60;;;2.30;;
24799;SDS011;12897;50.812;4.430;2023-06-26T15:55:20;7.28;;;2.08;;
24799;SDS011;12897;50.812;4.430;2023-06-26T15:57:47;6.30;;;2.30;;